Lilly, PA (15938)

10:38 AM EST del 03 Dicembre 2016 (GMT -0500)
Brookside, Beaverdale | | Change Station

Alt. 1923 ft 40.32 °N, 78.70 °W | Updated 4 seconds ago

Overcast
Coperto
33.1 °F
Sembra 28 °F
N
5.3
Vento Variabile Vento da SO
Gusts 21.2 mph

Oggi
Massima -- | Minima -- °F
--% Possibilità di precip.
Ieri
Massima -- | Minima -- °F
Precip. -- in
Pressione 30.25 in
Visibilità 10.0 miglia
Nuvole Molto nuvoloso 900 ft
Coperto 1300 ft
Raffreddamento del vento 28 °F
Punto di rugiada 29 °F
Umidità 85%
Piovosità 0.00 in
Spessore del manto nevoso Non disponibile.
7:20 AM 4:48 PM
Luna crescente, 15% visible
METAR KJST 031454Z AUTO 27010G20KT 10SM BKN009 OVC013 M01/M02 A3018 RMK AO2 PK WND 29026/1356 SLP244 T10061017 51017 TSNO
Pressione 30.25 in
Visibilità 10.0 miglia
Nuvole Molto nuvoloso 900 ft
Coperto 1300 ft
Raffreddamento del vento 28 °F
Punto di rugiada 29 °F
Umidità 85%
Piovosità 0.00 in
Spessore del manto nevoso Non disponibile.
7:20 AM 4:48 PM
Luna crescente, 15% visible
METAR KJST 031454Z AUTO 27010G20KT 10SM BKN009 OVC013 M01/M02 A3018 RMK AO2 PK WND 29026/1356 SLP244 T10061017 51017 TSNO

10-Day Weather Forecast

Almanac

Astronomia

Dec. 03, 2016 Alba Tramonto
Ora attuale
Crepuscolo civile
Crepuscolo nautico
Crepuscolo astronomico
Luna
Estensione della luce visibile
Lunghezza del giorno
Tomorrow will be .
, % of the Moon is Illuminated

Gli estremi di oggi

State Highs State Lows

Community

WunderPhotos

Upload Photos

1,955,425 foto caricate!

WunderBlog® & News

Nearby

Qualità dell'aria

  Qualità dell'aria Indice AQ Inquinante
Not available.

Profondità neve

Stazione Profondità Altitudine

Attività sismica

Città  Distanza Mag. Data & Ora
Minimo Magnitudo Mostrato è 2.5.

Temperature delle acque costiere

Località Temperatura

Stations

Stazioni meteo nelle vicinanze

Ubicazione della stazione Temp. Raffreddamento del vento Punto di rugiada Umidità Vento Precip. Alt. Aggiornato Tipo
                   

Watches & Warnings

There are currently no watches in effect.